sensor_id;sensor_type;location;lat;lon;timestamp;P1;durP1;ratioP1;P2;durP2;ratioP2
25637;SDS011;13496;51.040;13.680;2023-04-03T00:03:51;2.45;;;2.25;;
25637;SDS011;13496;51.040;13.680;2023-04-03T00:08:52;2.58;;;2.15;;
25637;SDS011;13496;51.040;13.680;2023-04-03T00:13:54;2.50;;;2.30;;
25637;SDS011;13496;51.040;13.680;2023-04-03T00:18:56;3.47;;;2.43;;
25637;SDS011;13496;51.040;13.680;2023-04-03T00:23:57;2.80;;;1.92;;
25637;SDS011;13496;51.040;13.680;2023-04-03T00:28:59;2.45;;;2.22;;
25637;SDS011;13496;51.040;13.680;2023-04-03T00:34:01;1.60;;;1.50;;
25637;SDS011;13496;51.040;13.680;2023-04-03T00:39:03;1.90;;;1.80;;
25637;SDS011;13496;51.040;13.680;2023-04-03T00:49:41;2.25;;;1.80;;
25637;SDS011;13496;51.040;13.680;2023-04-03T00:54:45;1.92;;;1.83;;
25637;SDS011;13496;51.040;13.680;2023-04-03T00:59:49;2.13;;;1.92;;
25637;SDS011;13496;51.040;13.680;2023-04-03T01:04:56;2.00;;;1.90;;
25637;SDS011;13496;51.040;13.680;2023-04-03T01:09:59;1.80;;;1.60;;
25637;SDS011;13496;51.040;13.680;2023-04-03T01:15:12;1.88;;;1.77;;
25637;SDS011;13496;51.040;13.680;2023-04-03T01:25:41;2.63;;;1.73;;
25637;SDS011;13496;51.040;13.680;2023-04-03T01:36:30;2.42;;;1.75;;
25637;SDS011;13496;51.040;13.680;2023-04-03T01:41:34;1.70;;;1.50;;
25637;SDS011;13496;51.040;13.680;2023-04-03T01:46:44;1.80;;;1.70;;
25637;SDS011;13496;51.040;13.680;2023-04-03T01:51:46;1.73;;;1.57;;
25637;SDS011;13496;51.040;13.680;2023-04-03T01:56:47;1.77;;;1.67;;
25637;SDS011;13496;51.040;13.680;2023-04-03T02:01:50;1.83;;;1.60;;
25637;SDS011;13496;51.040;13.680;2023-04-03T02:06:52;2.45;;;1.88;;
25637;SDS011;13496;51.040;13.680;2023-04-03T02:11:53;1.67;;;1.58;;
25637;SDS011;13496;51.040;13.680;2023-04-03T02:16:55;1.63;;;1.52;;
25637;SDS011;13496;51.040;13.680;2023-04-03T02:21:57;1.60;;;1.47;;
25637;SDS011;13496;51.040;13.680;2023-04-03T02:26:59;2.80;;;1.60;;
25637;SDS011;13496;51.040;13.680;2023-04-03T02:32:01;1.77;;;1.60;;
25637;SDS011;13496;51.040;13.680;2023-04-03T02:37:04;1.40;;;1.30;;
25637;SDS011;13496;51.040;13.680;2023-04-03T02:42:06;1.55;;;1.38;;
25637;SDS011;13496;51.040;13.680;2023-04-03T02:47:09;1.40;;;1.30;;
25637;SDS011;13496;51.040;13.680;2023-04-03T02:52:11;1.48;;;1.30;;
25637;SDS011;13496;51.040;13.680;2023-04-03T02:57:13;1.70;;;1.60;;
25637;SDS011;13496;51.040;13.680;2023-04-03T03:02:15;1.50;;;1.33;;
25637;SDS011;13496;51.040;13.680;2023-04-03T03:07:17;2.23;;;1.57;;
25637;SDS011;13496;51.040;13.680;2023-04-03T03:12:19;1.40;;;1.30;;
25637;SDS011;13496;51.040;13.680;2023-04-03T03:17:22;1.83;;;1.38;;
25637;SDS011;13496;51.040;13.680;2023-04-03T03:22:25;1.50;;;1.40;;
25637;SDS011;13496;51.040;13.680;2023-04-03T03:27:27;1.87;;;1.20;;
25637;SDS011;13496;51.040;13.680;2023-04-03T03:32:29;2.45;;;1.30;;
25637;SDS011;13496;51.040;13.680;2023-04-03T03:37:30;1.98;;;1.38;;
25637;SDS011;13496;51.040;13.680;2023-04-03T03:42:32;1.30;;;1.20;;
25637;SDS011;13496;51.040;13.680;2023-04-03T03:47:34;1.40;;;1.30;;
25637;SDS011;13496;51.040;13.680;2023-04-03T03:52:36;1.37;;;1.27;;
25637;SDS011;13496;51.040;13.680;2023-04-03T03:57:37;1.40;;;1.30;;
25637;SDS011;13496;51.040;13.680;2023-04-03T04:02:41;1.30;;;1.13;;
25637;SDS011;13496;51.040;13.680;2023-04-03T04:07:47;1.30;;;1.20;;
25637;SDS011;13496;51.040;13.680;2023-04-03T04:12:49;1.53;;;1.30;;
25637;SDS011;13496;51.040;13.680;2023-04-03T04:17:54;1.75;;;1.30;;
25637;SDS011;13496;51.040;13.680;2023-04-03T04:22:57;1.60;;;1.50;;
25637;SDS011;13496;51.040;13.680;2023-04-03T04:28:00;1.43;;;1.30;;
25637;SDS011;13496;51.040;13.680;2023-04-03T04:33:02;8.30;;;1.37;;
25637;SDS011;13496;51.040;13.680;2023-04-03T04:38:05;1.40;;;1.23;;
25637;SDS011;13496;51.040;13.680;2023-04-03T04:43:07;2.60;;;1.40;;
25637;SDS011;13496;51.040;13.680;2023-04-03T04:48:10;1.47;;;1.33;;
25637;SDS011;13496;51.040;13.680;2023-04-03T04:53:12;3.37;;;1.53;;
25637;SDS011;13496;51.040;13.680;2023-04-03T04:58:14;3.20;;;1.60;;
25637;SDS011;13496;51.040;13.680;2023-04-03T05:03:16;1.47;;;1.20;;
25637;SDS011;13496;51.040;13.680;2023-04-03T05:08:19;1.60;;;1.40;;
25637;SDS011;13496;51.040;13.680;2023-04-03T05:13:20;2.38;;;1.60;;
25637;SDS011;13496;51.040;13.680;2023-04-03T05:18:22;2.07;;;1.33;;
25637;SDS011;13496;51.040;13.680;2023-04-03T05:23:25;1.73;;;1.50;;
25637;SDS011;13496;51.040;13.680;2023-04-03T05:28:28;3.47;;;1.50;;
25637;SDS011;13496;51.040;13.680;2023-04-03T05:33:30;2.77;;;1.53;;
25637;SDS011;13496;51.040;13.680;2023-04-03T05:38:34;1.40;;;1.30;;
25637;SDS011;13496;51.040;13.680;2023-04-03T05:43:35;1.90;;;1.50;;
25637;SDS011;13496;51.040;13.680;2023-04-03T05:48:40;1.87;;;1.20;;
25637;SDS011;13496;51.040;13.680;2023-04-03T05:53:45;1.40;;;1.30;;
25637;SDS011;13496;51.040;13.680;2023-04-03T05:58:48;1.83;;;1.50;;
25637;SDS011;13496;51.040;13.680;2023-04-03T06:03:50;2.47;;;1.23;;
25637;SDS011;13496;51.040;13.680;2023-04-03T06:08:53;2.67;;;1.50;;
25637;SDS011;13496;51.040;13.680;2023-04-03T06:13:55;1.73;;;1.40;;
25637;SDS011;13496;51.040;13.680;2023-04-03T06:18:56;1.63;;;1.30;;
25637;SDS011;13496;51.040;13.680;2023-04-03T06:23:59;1.43;;;1.23;;
25637;SDS011;13496;51.040;13.680;2023-04-03T06:29:00;1.30;;;1.17;;
25637;SDS011;13496;51.040;13.680;2023-04-03T06:34:03;1.30;;;1.20;;
25637;SDS011;13496;51.040;13.680;2023-04-03T06:39:06;1.80;;;1.25;;
25637;SDS011;13496;51.040;13.680;2023-04-03T06:44:08;2.00;;;1.20;;
25637;SDS011;13496;51.040;13.680;2023-04-03T06:49:12;3.10;;;1.60;;
25637;SDS011;13496;51.040;13.680;2023-04-03T06:54:13;1.30;;;1.20;;
25637;SDS011;13496;51.040;13.680;2023-04-03T06:59:16;2.30;;;1.50;;
25637;SDS011;13496;51.040;13.680;2023-04-03T07:04:18;1.80;;;1.50;;
25637;SDS011;13496;51.040;13.680;2023-04-03T07:09:21;2.77;;;1.20;;
25637;SDS011;13496;51.040;13.680;2023-04-03T07:14:23;1.60;;;1.10;;
25637;SDS011;13496;51.040;13.680;2023-04-03T07:19:24;1.77;;;1.30;;
25637;SDS011;13496;51.040;13.680;2023-04-03T07:24:29;1.98;;;1.40;;
25637;SDS011;13496;51.040;13.680;2023-04-03T07:29:30;1.67;;;1.20;;
25637;SDS011;13496;51.040;13.680;2023-04-03T07:34:32;1.77;;;1.17;;
25637;SDS011;13496;51.040;13.680;2023-04-03T07:39:34;2.53;;;1.30;;
25637;SDS011;13496;51.040;13.680;2023-04-03T07:44:36;1.30;;;1.20;;
25637;SDS011;13496;51.040;13.680;2023-04-03T07:49:37;1.37;;;1.23;;
25637;SDS011;13496;51.040;13.680;2023-04-03T07:54:41;1.60;;;1.30;;
25637;SDS011;13496;51.040;13.680;2023-04-03T07:59:43;1.25;;;1.13;;
25637;SDS011;13496;51.040;13.680;2023-04-03T08:04:44;1.98;;;1.38;;
25637;SDS011;13496;51.040;13.680;2023-04-03T08:09:46;1.13;;;1.02;;
25637;SDS011;13496;51.040;13.680;2023-04-03T08:14:48;1.30;;;1.20;;
25637;SDS011;13496;51.040;13.680;2023-04-03T08:19:50;1.97;;;1.07;;
25637;SDS011;13496;51.040;13.680;2023-04-03T08:24:51;1.83;;;1.33;;
25637;SDS011;13496;51.040;13.680;2023-04-03T08:29:53;2.42;;;1.27;;
25637;SDS011;13496;51.040;13.680;2023-04-03T08:34:55;1.67;;;1.27;;
25637;SDS011;13496;51.040;13.680;2023-04-03T08:39:56;1.10;;;1.00;;
25637;SDS011;13496;51.040;13.680;2023-04-03T08:45:01;1.80;;;1.40;;
25637;SDS011;13496;51.040;13.680;2023-04-03T08:50:12;1.52;;;1.23;;
25637;SDS011;13496;51.040;13.680;2023-04-03T08:55:27;1.50;;;1.40;;
25637;SDS011;13496;51.040;13.680;2023-04-03T09:00:41;1.58;;;1.30;;
25637;SDS011;13496;51.040;13.680;2023-04-03T09:05:54;1.30;;;1.20;;
25637;SDS011;13496;51.040;13.680;2023-04-03T09:21:59;1.52;;;1.30;;
25637;SDS011;13496;51.040;13.680;2023-04-03T09:27:12;1.70;;;1.30;;
25637;SDS011;13496;51.040;13.680;2023-04-03T09:37:41;1.55;;;1.08;;
25637;SDS011;13496;51.040;13.680;2023-04-03T09:42:45;2.45;;;1.20;;
25637;SDS011;13496;51.040;13.680;2023-04-03T09:47:47;1.70;;;1.23;;
25637;SDS011;13496;51.040;13.680;2023-04-03T09:52:50;1.25;;;1.13;;
25637;SDS011;13496;51.040;13.680;2023-04-03T09:57:56;1.25;;;1.15;;
25637;SDS011;13496;51.040;13.680;2023-04-03T10:03:00;1.02;;;0.95;;
25637;SDS011;13496;51.040;13.680;2023-04-03T10:18:31;1.40;;;1.13;;
25637;SDS011;13496;51.040;13.680;2023-04-03T10:23:44;1.40;;;1.25;;
25637;SDS011;13496;51.040;13.680;2023-04-03T10:28:53;1.20;;;1.10;;
25637;SDS011;13496;51.040;13.680;2023-04-03T10:34:04;2.03;;;1.20;;
25637;SDS011;13496;51.040;13.680;2023-04-03T10:39:17;1.27;;;1.17;;
25637;SDS011;13496;51.040;13.680;2023-04-03T10:50:27;1.17;;;1.08;;
25637;SDS011;13496;51.040;13.680;2023-04-03T10:55:40;1.20;;;0.93;;
25637;SDS011;13496;51.040;13.680;2023-04-03T11:00:49;1.27;;;1.17;;
25637;SDS011;13496;51.040;13.680;2023-04-03T11:05:54;1.10;;;1.00;;
25637;SDS011;13496;51.040;13.680;2023-04-03T11:11:00;1.35;;;1.20;;
25637;SDS011;13496;51.040;13.680;2023-04-03T11:16:07;1.10;;;0.95;;
25637;SDS011;13496;51.040;13.680;2023-04-03T11:21:22;1.60;;;1.00;;
25637;SDS011;13496;51.040;13.680;2023-04-03T11:26:31;0.90;;;0.90;;
25637;SDS011;13496;51.040;13.680;2023-04-03T11:37:06;2.22;;;1.10;;
25637;SDS011;13496;51.040;13.680;2023-04-03T11:47:44;0.93;;;0.90;;
25637;SDS011;13496;51.040;13.680;2023-04-03T12:02:59;1.30;;;1.20;;
25637;SDS011;13496;51.040;13.680;2023-04-03T12:08:15;0.90;;;0.90;;
25637;SDS011;13496;51.040;13.680;2023-04-03T12:13:28;0.95;;;0.95;;
25637;SDS011;13496;51.040;13.680;2023-04-03T12:29:14;0.90;;;0.90;;
25637;SDS011;13496;51.040;13.680;2023-04-03T12:44:58;1.10;;;1.00;;
25637;SDS011;13496;51.040;13.680;2023-04-03T12:55:25;1.50;;;0.88;;
25637;SDS011;13496;51.040;13.680;2023-04-03T13:05:31;1.20;;;0.88;;
25637;SDS011;13496;51.040;13.680;2023-04-03T13:10:41;1.20;;;1.10;;
25637;SDS011;13496;51.040;13.680;2023-04-03T13:15:54;1.17;;;0.90;;
25637;SDS011;13496;51.040;13.680;2023-04-03T13:20:57;1.17;;;1.08;;
25637;SDS011;13496;51.040;13.680;2023-04-03T13:26:04;1.48;;;0.93;;
25637;SDS011;13496;51.040;13.680;2023-04-03T13:36:19;1.00;;;0.95;;
25637;SDS011;13496;51.040;13.680;2023-04-03T13:41:34;1.58;;;0.98;;
25637;SDS011;13496;51.040;13.680;2023-04-03T13:46:38;1.20;;;1.10;;
25637;SDS011;13496;51.040;13.680;2023-04-03T13:51:40;1.80;;;1.00;;
25637;SDS011;13496;51.040;13.680;2023-04-03T13:56:42;0.90;;;0.80;;
25637;SDS011;13496;51.040;13.680;2023-04-03T14:06:55;0.85;;;0.85;;
25637;SDS011;13496;51.040;13.680;2023-04-03T14:11:58;1.20;;;1.00;;
25637;SDS011;13496;51.040;13.680;2023-04-03T14:17:17;1.05;;;0.95;;
25637;SDS011;13496;51.040;13.680;2023-04-03T14:22:26;2.55;;;0.95;;
25637;SDS011;13496;51.040;13.680;2023-04-03T14:27:34;1.13;;;1.02;;
25637;SDS011;13496;51.040;13.680;2023-04-03T14:32:37;0.70;;;0.70;;
25637;SDS011;13496;51.040;13.680;2023-04-03T14:37:39;2.80;;;1.00;;
25637;SDS011;13496;51.040;13.680;2023-04-03T14:42:42;1.90;;;1.20;;
25637;SDS011;13496;51.040;13.680;2023-04-03T14:47:47;1.35;;;1.10;;
25637;SDS011;13496;51.040;13.680;2023-04-03T14:52:52;2.55;;;1.25;;
25637;SDS011;13496;51.040;13.680;2023-04-03T14:57:56;1.80;;;1.02;;
25637;SDS011;13496;51.040;13.680;2023-04-03T15:02:58;2.35;;;1.00;;
25637;SDS011;13496;51.040;13.680;2023-04-03T15:08:00;3.22;;;1.00;;
25637;SDS011;13496;51.040;13.680;2023-04-03T15:13:01;1.02;;;1.00;;
25637;SDS011;13496;51.040;13.680;2023-04-03T15:18:04;2.35;;;1.10;;
25637;SDS011;13496;51.040;13.680;2023-04-03T15:23:06;1.13;;;0.95;;
25637;SDS011;13496;51.040;13.680;2023-04-03T15:28:09;1.00;;;0.90;;
25637;SDS011;13496;51.040;13.680;2023-04-03T15:33:18;1.50;;;1.00;;
25637;SDS011;13496;51.040;13.680;2023-04-03T15:38:20;2.55;;;1.08;;
25637;SDS011;13496;51.040;13.680;2023-04-03T15:43:22;1.13;;;1.00;;
25637;SDS011;13496;51.040;13.680;2023-04-03T15:48:24;2.33;;;1.10;;
25637;SDS011;13496;51.040;13.680;2023-04-03T15:53:26;3.42;;;1.10;;
25637;SDS011;13496;51.040;13.680;2023-04-03T15:58:28;1.73;;;1.00;;
25637;SDS011;13496;51.040;13.680;2023-04-03T16:03:30;0.98;;;0.88;;
25637;SDS011;13496;51.040;13.680;2023-04-03T16:08:32;2.20;;;1.10;;
25637;SDS011;13496;51.040;13.680;2023-04-03T16:13:34;43.38;;;6.47;;
25637;SDS011;13496;51.040;13.680;2023-04-03T16:18:36;14.73;;;2.47;;
25637;SDS011;13496;51.040;13.680;2023-04-03T16:23:38;26.15;;;3.83;;
25637;SDS011;13496;51.040;13.680;2023-04-03T16:28:40;67.18;;;10.45;;
25637;SDS011;13496;51.040;13.680;2023-04-03T16:33:41;160.02;;;23.40;;
25637;SDS011;13496;51.040;13.680;2023-04-03T16:38:43;220.70;;;25.75;;
25637;SDS011;13496;51.040;13.680;2023-04-03T16:43:45;101.72;;;16.00;;
25637;SDS011;13496;51.040;13.680;2023-04-03T16:48:46;113.72;;;17.83;;
25637;SDS011;13496;51.040;13.680;2023-04-03T16:53:48;141.23;;;21.10;;
25637;SDS011;13496;51.040;13.680;2023-04-03T16:58:50;127.68;;;17.80;;
25637;SDS011;13496;51.040;13.680;2023-04-03T17:03:51;115.72;;;16.63;;
25637;SDS011;13496;51.040;13.680;2023-04-03T17:08:53;86.77;;;14.70;;
25637;SDS011;13496;51.040;13.680;2023-04-03T17:14:04;73.53;;;12.90;;
25637;SDS011;13496;51.040;13.680;2023-04-03T17:19:06;78.95;;;13.05;;
25637;SDS011;13496;51.040;13.680;2023-04-03T17:24:08;60.63;;;12.13;;
25637;SDS011;13496;51.040;13.680;2023-04-03T17:29:13;85.30;;;14.02;;
25637;SDS011;13496;51.040;13.680;2023-04-03T17:34:15;49.08;;;10.45;;
25637;SDS011;13496;51.040;13.680;2023-04-03T17:39:17;54.38;;;10.75;;
25637;SDS011;13496;51.040;13.680;2023-04-03T17:44:18;52.10;;;10.70;;
25637;SDS011;13496;51.040;13.680;2023-04-03T17:49:20;46.27;;;10.70;;
25637;SDS011;13496;51.040;13.680;2023-04-03T17:54:22;53.70;;;9.10;;
25637;SDS011;13496;51.040;13.680;2023-04-03T17:59:24;42.75;;;9.55;;
25637;SDS011;13496;51.040;13.680;2023-04-03T18:04:26;41.72;;;7.88;;
25637;SDS011;13496;51.040;13.680;2023-04-03T18:09:31;37.40;;;7.47;;
25637;SDS011;13496;51.040;13.680;2023-04-03T18:14:34;32.73;;;7.30;;
25637;SDS011;13496;51.040;13.680;2023-04-03T18:19:37;39.60;;;7.68;;
25637;SDS011;13496;51.040;13.680;2023-04-03T18:24:39;30.60;;;7.10;;
25637;SDS011;13496;51.040;13.680;2023-04-03T18:29:44;28.00;;;6.28;;
25637;SDS011;13496;51.040;13.680;2023-04-03T18:34:50;22.40;;;5.47;;
25637;SDS011;13496;51.040;13.680;2023-04-03T18:39:51;22.50;;;5.87;;
25637;SDS011;13496;51.040;13.680;2023-04-03T18:44:54;22.87;;;5.43;;
25637;SDS011;13496;51.040;13.680;2023-04-03T18:49:58;22.83;;;5.30;;
25637;SDS011;13496;51.040;13.680;2023-04-03T18:55:00;18.57;;;5.07;;
25637;SDS011;13496;51.040;13.680;2023-04-03T19:00:02;20.15;;;4.55;;
25637;SDS011;13496;51.040;13.680;2023-04-03T19:05:05;17.05;;;4.65;;
25637;SDS011;13496;51.040;13.680;2023-04-03T19:10:09;15.48;;;4.70;;
25637;SDS011;13496;51.040;13.680;2023-04-03T19:15:18;18.77;;;4.90;;
25637;SDS011;13496;51.040;13.680;2023-04-03T19:20:21;12.37;;;4.00;;
25637;SDS011;13496;51.040;13.680;2023-04-03T19:25:23;14.03;;;3.80;;
25637;SDS011;13496;51.040;13.680;2023-04-03T19:30:25;11.33;;;3.77;;
25637;SDS011;13496;51.040;13.680;2023-04-03T19:35:27;12.17;;;3.90;;
25637;SDS011;13496;51.040;13.680;2023-04-03T19:40:29;12.83;;;3.47;;
25637;SDS011;13496;51.040;13.680;2023-04-03T19:45:32;10.55;;;2.90;;
25637;SDS011;13496;51.040;13.680;2023-04-03T19:50:34;11.23;;;3.27;;
25637;SDS011;13496;51.040;13.680;2023-04-03T19:55:36;8.97;;;3.63;;
25637;SDS011;13496;51.040;13.680;2023-04-03T20:00:38;7.95;;;2.78;;
25637;SDS011;13496;51.040;13.680;2023-04-03T20:05:39;5.10;;;2.72;;
25637;SDS011;13496;51.040;13.680;2023-04-03T20:10:41;8.33;;;3.07;;
25637;SDS011;13496;51.040;13.680;2023-04-03T20:15:43;7.90;;;2.80;;
25637;SDS011;13496;51.040;13.680;2023-04-03T20:20:55;6.83;;;2.57;;
25637;SDS011;13496;51.040;13.680;2023-04-03T20:26:00;5.32;;;2.42;;
25637;SDS011;13496;51.040;13.680;2023-04-03T20:31:02;6.80;;;2.57;;
25637;SDS011;13496;51.040;13.680;2023-04-03T20:36:04;7.70;;;2.40;;
25637;SDS011;13496;51.040;13.680;2023-04-03T20:41:05;5.90;;;2.50;;
25637;SDS011;13496;51.040;13.680;2023-04-03T20:46:08;5.80;;;2.30;;
25637;SDS011;13496;51.040;13.680;2023-04-03T20:51:12;4.67;;;2.20;;
25637;SDS011;13496;51.040;13.680;2023-04-03T20:56:19;6.03;;;2.37;;
25637;SDS011;13496;51.040;13.680;2023-04-03T21:01:21;5.87;;;2.33;;
25637;SDS011;13496;51.040;13.680;2023-04-03T21:23:08;5.07;;;2.00;;
25637;SDS011;13496;51.040;13.680;2023-04-03T21:28:10;3.50;;;1.70;;
25637;SDS011;13496;51.040;13.680;2023-04-03T21:33:12;3.47;;;1.70;;
25637;SDS011;13496;51.040;13.680;2023-04-03T21:38:14;4.07;;;2.13;;
25637;SDS011;13496;51.040;13.680;2023-04-03T21:43:15;5.10;;;1.90;;
25637;SDS011;13496;51.040;13.680;2023-04-03T21:48:18;4.07;;;1.70;;
25637;SDS011;13496;51.040;13.680;2023-04-03T21:53:20;4.80;;;1.73;;
25637;SDS011;13496;51.040;13.680;2023-04-03T21:58:29;3.15;;;1.85;;
25637;SDS011;13496;51.040;13.680;2023-04-03T22:03:32;2.57;;;1.73;;
25637;SDS011;13496;51.040;13.680;2023-04-03T22:08:35;3.57;;;1.77;;
25637;SDS011;13496;51.040;13.680;2023-04-03T22:13:37;2.60;;;1.60;;
25637;SDS011;13496;51.040;13.680;2023-04-03T22:18:39;2.73;;;1.80;;
25637;SDS011;13496;51.040;13.680;2023-04-03T22:23:41;3.33;;;1.80;;
25637;SDS011;13496;51.040;13.680;2023-04-03T22:28:44;2.43;;;1.40;;
25637;SDS011;13496;51.040;13.680;2023-04-03T22:33:47;1.97;;;1.40;;
25637;SDS011;13496;51.040;13.680;2023-04-03T22:38:48;3.73;;;1.50;;
25637;SDS011;13496;51.040;13.680;2023-04-03T22:43:50;2.17;;;1.67;;
25637;SDS011;13496;51.040;13.680;2023-04-03T22:48:52;2.93;;;1.53;;
25637;SDS011;13496;51.040;13.680;2023-04-03T22:53:53;2.03;;;1.50;;
25637;SDS011;13496;51.040;13.680;2023-04-03T22:58:55;4.03;;;1.50;;
25637;SDS011;13496;51.040;13.680;2023-04-03T23:03:57;3.35;;;1.42;;
25637;SDS011;13496;51.040;13.680;2023-04-03T23:08:59;1.70;;;1.57;;
25637;SDS011;13496;51.040;13.680;2023-04-03T23:14:01;1.87;;;1.23;;
25637;SDS011;13496;51.040;13.680;2023-04-03T23:19:03;2.10;;;1.40;;
25637;SDS011;13496;51.040;13.680;2023-04-03T23:24:05;1.60;;;1.40;;
25637;SDS011;13496;51.040;13.680;2023-04-03T23:29:06;1.73;;;1.17;;
25637;SDS011;13496;51.040;13.680;2023-04-03T23:34:08;1.60;;;1.50;;
25637;SDS011;13496;51.040;13.680;2023-04-03T23:39:09;2.43;;;1.30;;
25637;SDS011;13496;51.040;13.680;2023-04-03T23:44:11;2.88;;;1.42;;
25637;SDS011;13496;51.040;13.680;2023-04-03T23:49:13;1.43;;;1.30;;
25637;SDS011;13496;51.040;13.680;2023-04-03T23:54:15;1.43;;;1.20;;
25637;SDS011;13496;51.040;13.680;2023-04-03T23:59:17;1.93;;;1.40;;
